sensor_id;sensor_type;location;lat;lon;timestamp;temperature;humidity
10891;DHT22;5498;50.928;11.598;2022-08-21T00:01:47;19.90;92.30
10891;DHT22;5498;50.928;11.598;2022-08-21T00:04:50;20.20;92.30
10891;DHT22;5498;50.928;11.598;2022-08-21T00:07:54;19.90;92.20
10891;DHT22;5498;50.928;11.598;2022-08-21T00:10:57;19.90;92.20
10891;DHT22;5498;50.928;11.598;2022-08-21T00:13:59;19.90;92.20
10891;DHT22;5498;50.928;11.598;2022-08-21T00:17:01;20.00;91.90
10891;DHT22;5498;50.928;11.598;2022-08-21T00:20:06;20.20;92.00
10891;DHT22;5498;50.928;11.598;2022-08-21T00:23:12;20.00;91.90
10891;DHT22;5498;50.928;11.598;2022-08-21T00:26:14;20.10;91.70
10891;DHT22;5498;50.928;11.598;2022-08-21T00:29:16;20.10;91.50
10891;DHT22;5498;50.928;11.598;2022-08-21T00:32:22;20.10;91.50
10891;DHT22;5498;50.928;11.598;2022-08-21T00:35:27;20.10;91.40
10891;DHT22;5498;50.928;11.598;2022-08-21T00:38:31;20.10;91.40
10891;DHT22;5498;50.928;11.598;2022-08-21T00:41:35;20.10;91.30
10891;DHT22;5498;50.928;11.598;2022-08-21T00:44:38;20.00;91.50
10891;DHT22;5498;50.928;11.598;2022-08-21T00:47:40;20.00;91.40
10891;DHT22;5498;50.928;11.598;2022-08-21T00:50:46;19.90;91.40
10891;DHT22;5498;50.928;11.598;2022-08-21T00:53:59;19.90;91.50
10891;DHT22;5498;50.928;11.598;2022-08-21T00:57:13;19.70;91.90
10891;DHT22;5498;50.928;11.598;2022-08-21T01:00:19;20.10;92.20
10891;DHT22;5498;50.928;11.598;2022-08-21T01:03:23;19.60;92.20
10891;DHT22;5498;50.928;11.598;2022-08-21T01:06:26;19.60;92.30
10891;DHT22;5498;50.928;11.598;2022-08-21T01:09:30;19.50;92.20
10891;DHT22;5498;50.928;11.598;2022-08-21T01:12:33;19.50;92.20
10891;DHT22;5498;50.928;11.598;2022-08-21T01:15:38;19.40;92.50
10891;DHT22;5498;50.928;11.598;2022-08-21T01:18:42;19.40;92.60
10891;DHT22;5498;50.928;11.598;2022-08-21T01:21:46;19.40;92.60
10891;DHT22;5498;50.928;11.598;2022-08-21T01:24:48;19.40;92.60
10891;DHT22;5498;50.928;11.598;2022-08-21T01:27:50;19.30;92.40
10891;DHT22;5498;50.928;11.598;2022-08-21T01:30:53;19.60;92.30
10891;DHT22;5498;50.928;11.598;2022-08-21T01:33:56;19.30;92.50
10891;DHT22;5498;50.928;11.598;2022-08-21T01:36:59;19.30;92.50
10891;DHT22;5498;50.928;11.598;2022-08-21T01:40:03;19.20;92.40
10891;DHT22;5498;50.928;11.598;2022-08-21T01:43:06;19.20;92.60
10891;DHT22;5498;50.928;11.598;2022-08-21T01:46:08;19.20;92.40
10891;DHT22;5498;50.928;11.598;2022-08-21T01:49:09;19.20;92.50
10891;DHT22;5498;50.928;11.598;2022-08-21T01:52:13;19.60;92.50
10891;DHT22;5498;50.928;11.598;2022-08-21T01:55:16;19.20;92.40
10891;DHT22;5498;50.928;11.598;2022-08-21T01:58:19;19.30;92.40
10891;DHT22;5498;50.928;11.598;2022-08-21T02:01:21;19.20;92.10
10891;DHT22;5498;50.928;11.598;2022-08-21T02:04:23;19.70;92.30
10891;DHT22;5498;50.928;11.598;2022-08-21T02:07:27;19.10;92.30
10891;DHT22;5498;50.928;11.598;2022-08-21T02:10:31;19.10;92.20
10891;DHT22;5498;50.928;11.598;2022-08-21T02:13:33;19.00;92.40
10891;DHT22;5498;50.928;11.598;2022-08-21T02:16:35;19.00;92.30
10891;DHT22;5498;50.928;11.598;2022-08-21T02:19:37;19.00;92.30
10891;DHT22;5498;50.928;11.598;2022-08-21T02:22:41;19.40;92.40
10891;DHT22;5498;50.928;11.598;2022-08-21T02:25:43;19.00;92.10
10891;DHT22;5498;50.928;11.598;2022-08-21T02:28:46;19.00;92.30
10891;DHT22;5498;50.928;11.598;2022-08-21T02:31:48;18.90;92.30
10891;DHT22;5498;50.928;11.598;2022-08-21T02:34:50;18.90;92.30
10891;DHT22;5498;50.928;11.598;2022-08-21T02:37:56;18.90;92.50
10891;DHT22;5498;50.928;11.598;2022-08-21T02:40:59;18.80;92.50
10891;DHT22;5498;50.928;11.598;2022-08-21T02:44:02;18.80;92.60
10891;DHT22;5498;50.928;11.598;2022-08-21T02:47:04;18.80;92.40
10891;DHT22;5498;50.928;11.598;2022-08-21T02:50:07;18.80;92.20
10891;DHT22;5498;50.928;11.598;2022-08-21T02:53:12;18.70;92.50
10891;DHT22;5498;50.928;11.598;2022-08-21T02:56:19;18.70;92.60
10891;DHT22;5498;50.928;11.598;2022-08-21T02:59:22;18.60;92.60
10891;DHT22;5498;50.928;11.598;2022-08-21T03:02:24;18.60;92.50
10891;DHT22;5498;50.928;11.598;2022-08-21T03:05:28;18.70;92.60
10891;DHT22;5498;50.928;11.598;2022-08-21T03:08:33;18.70;92.50
10891;DHT22;5498;50.928;11.598;2022-08-21T03:11:37;18.70;92.30
10891;DHT22;5498;50.928;11.598;2022-08-21T03:14:38;18.70;92.00
10891;DHT22;5498;50.928;11.598;2022-08-21T03:17:40;18.60;92.10
10891;DHT22;5498;50.928;11.598;2022-08-21T03:20:47;18.60;92.20
10891;DHT22;5498;50.928;11.598;2022-08-21T03:23:50;18.80;92.40
10891;DHT22;5498;50.928;11.598;2022-08-21T03:26:55;18.50;92.20
10891;DHT22;5498;50.928;11.598;2022-08-21T03:29:57;18.50;92.30
10891;DHT22;5498;50.928;11.598;2022-08-21T03:33:00;18.50;92.50
10891;DHT22;5498;50.928;11.598;2022-08-21T03:36:06;18.50;92.70
10891;DHT22;5498;50.928;11.598;2022-08-21T03:39:09;18.50;92.70
10891;DHT22;5498;50.928;11.598;2022-08-21T03:42:11;18.60;92.40
10891;DHT22;5498;50.928;11.598;2022-08-21T03:45:15;18.90;92.40
10891;DHT22;5498;50.928;11.598;2022-08-21T03:48:18;18.50;92.70
10891;DHT22;5498;50.928;11.598;2022-08-21T03:51:20;18.40;92.80
10891;DHT22;5498;50.928;11.598;2022-08-21T03:54:24;18.30;92.90
10891;DHT22;5498;50.928;11.598;2022-08-21T03:57:26;18.20;92.90
10891;DHT22;5498;50.928;11.598;2022-08-21T04:00:29;18.20;93.10
10891;DHT22;5498;50.928;11.598;2022-08-21T04:03:34;18.10;93.30
10891;DHT22;5498;50.928;11.598;2022-08-21T04:06:37;18.10;93.60
10891;DHT22;5498;50.928;11.598;2022-08-21T04:09:41;18.10;93.70
10891;DHT22;5498;50.928;11.598;2022-08-21T04:12:43;18.10;93.70
10891;DHT22;5498;50.928;11.598;2022-08-21T04:15:45;18.10;93.90
10891;DHT22;5498;50.928;11.598;2022-08-21T04:18:47;18.00;94.00
10891;DHT22;5498;50.928;11.598;2022-08-21T04:21:49;18.10;94.10
10891;DHT22;5498;50.928;11.598;2022-08-21T04:24:52;18.10;94.10
10891;DHT22;5498;50.928;11.598;2022-08-21T04:27:54;18.10;94.10
10891;DHT22;5498;50.928;11.598;2022-08-21T04:30:56;18.10;94.20
10891;DHT22;5498;50.928;11.598;2022-08-21T04:33:59;18.20;94.30
10891;DHT22;5498;50.928;11.598;2022-08-21T04:37:01;18.20;94.30
10891;DHT22;5498;50.928;11.598;2022-08-21T04:40:05;18.20;94.20
10891;DHT22;5498;50.928;11.598;2022-08-21T04:43:10;18.20;94.20
10891;DHT22;5498;50.928;11.598;2022-08-21T04:46:12;18.20;94.00
10891;DHT22;5498;50.928;11.598;2022-08-21T04:49:14;18.20;94.00
10891;DHT22;5498;50.928;11.598;2022-08-21T04:52:21;18.20;93.80
10891;DHT22;5498;50.928;11.598;2022-08-21T04:55:25;18.20;94.30
10891;DHT22;5498;50.928;11.598;2022-08-21T04:58:28;18.10;94.00
10891;DHT22;5498;50.928;11.598;2022-08-21T05:01:34;18.10;93.90
10891;DHT22;5498;50.928;11.598;2022-08-21T05:04:41;18.10;94.10
10891;DHT22;5498;50.928;11.598;2022-08-21T05:07:44;18.10;94.20
10891;DHT22;5498;50.928;11.598;2022-08-21T05:10:48;18.20;94.10
10891;DHT22;5498;50.928;11.598;2022-08-21T05:13:50;18.20;94.00
10891;DHT22;5498;50.928;11.598;2022-08-21T05:16:52;18.20;93.90
10891;DHT22;5498;50.928;11.598;2022-08-21T05:19:53;18.20;93.80
10891;DHT22;5498;50.928;11.598;2022-08-21T05:22:56;18.20;93.90
10891;DHT22;5498;50.928;11.598;2022-08-21T05:25:59;18.20;93.90
10891;DHT22;5498;50.928;11.598;2022-08-21T05:29:02;18.20;93.90
10891;DHT22;5498;50.928;11.598;2022-08-21T05:32:08;18.20;94.10
10891;DHT22;5498;50.928;11.598;2022-08-21T05:35:11;18.30;94.10
10891;DHT22;5498;50.928;11.598;2022-08-21T05:38:12;18.20;93.80
10891;DHT22;5498;50.928;11.598;2022-08-21T05:41:16;18.30;93.90
10891;DHT22;5498;50.928;11.598;2022-08-21T05:44:18;18.30;93.80
10891;DHT22;5498;50.928;11.598;2022-08-21T05:47:20;18.30;93.80
10891;DHT22;5498;50.928;11.598;2022-08-21T05:50:21;18.40;93.90
10891;DHT22;5498;50.928;11.598;2022-08-21T05:53:24;18.30;93.70
10891;DHT22;5498;50.928;11.598;2022-08-21T05:56:27;18.30;93.80
10891;DHT22;5498;50.928;11.598;2022-08-21T05:59:29;18.40;93.80
10891;DHT22;5498;50.928;11.598;2022-08-21T06:02:31;18.60;93.90
10891;DHT22;5498;50.928;11.598;2022-08-21T06:05:33;18.30;93.70
10891;DHT22;5498;50.928;11.598;2022-08-21T06:08:35;18.40;93.80
10891;DHT22;5498;50.928;11.598;2022-08-21T06:11:39;18.30;93.90
10891;DHT22;5498;50.928;11.598;2022-08-21T06:14:41;18.30;93.90
10891;DHT22;5498;50.928;11.598;2022-08-21T06:17:43;18.40;93.80
10891;DHT22;5498;50.928;11.598;2022-08-21T06:20:45;18.40;93.80
10891;DHT22;5498;50.928;11.598;2022-08-21T06:23:47;18.40;93.80
10891;DHT22;5498;50.928;11.598;2022-08-21T06:26:51;18.40;93.70
10891;DHT22;5498;50.928;11.598;2022-08-21T06:29:53;18.50;93.70
10891;DHT22;5498;50.928;11.598;2022-08-21T06:32:57;18.50;93.80
10891;DHT22;5498;50.928;11.598;2022-08-21T06:35:59;18.60;93.70
10891;DHT22;5498;50.928;11.598;2022-08-21T06:39:01;18.60;93.60
10891;DHT22;5498;50.928;11.598;2022-08-21T06:42:05;18.70;93.60
10891;DHT22;5498;50.928;11.598;2022-08-21T06:45:08;18.80;93.50
10891;DHT22;5498;50.928;11.598;2022-08-21T06:48:10;18.80;93.50
10891;DHT22;5498;50.928;11.598;2022-08-21T06:51:12;18.90;93.40
10891;DHT22;5498;50.928;11.598;2022-08-21T06:54:14;18.90;93.40
10891;DHT22;5498;50.928;11.598;2022-08-21T06:57:17;18.90;93.30
10891;DHT22;5498;50.928;11.598;2022-08-21T07:00:19;19.00;93.10
10891;DHT22;5498;50.928;11.598;2022-08-21T07:03:26;19.00;93.10
10891;DHT22;5498;50.928;11.598;2022-08-21T07:06:29;19.10;93.10
10891;DHT22;5498;50.928;11.598;2022-08-21T07:09:31;19.20;93.00
10891;DHT22;5498;50.928;11.598;2022-08-21T07:12:34;19.40;92.80
10891;DHT22;5498;50.928;11.598;2022-08-21T07:15:36;19.60;92.70
10891;DHT22;5498;50.928;11.598;2022-08-21T07:18:38;19.70;92.50
10891;DHT22;5498;50.928;11.598;2022-08-21T07:21:40;19.80;92.20
10891;DHT22;5498;50.928;11.598;2022-08-21T07:24:42;20.00;92.00
10891;DHT22;5498;50.928;11.598;2022-08-21T07:27:45;20.60;92.10
10891;DHT22;5498;50.928;11.598;2022-08-21T07:30:50;20.40;91.70
10891;DHT22;5498;50.928;11.598;2022-08-21T07:33:53;20.60;91.60
10891;DHT22;5498;50.928;11.598;2022-08-21T07:36:56;20.80;91.00
10891;DHT22;5498;50.928;11.598;2022-08-21T07:39:58;21.00;91.00
10891;DHT22;5498;50.928;11.598;2022-08-21T07:43:02;21.30;90.60
10891;DHT22;5498;50.928;11.598;2022-08-21T07:46:04;21.70;90.20
10891;DHT22;5498;50.928;11.598;2022-08-21T07:49:06;21.50;90.00
10891;DHT22;5498;50.928;11.598;2022-08-21T07:52:08;21.70;89.50
10891;DHT22;5498;50.928;11.598;2022-08-21T07:55:12;21.80;88.50
10891;DHT22;5498;50.928;11.598;2022-08-21T07:58:16;22.30;88.20
10891;DHT22;5498;50.928;11.598;2022-08-21T08:01:18;22.30;87.60
10891;DHT22;5498;50.928;11.598;2022-08-21T08:04:21;21.90;87.80
10891;DHT22;5498;50.928;11.598;2022-08-21T08:07:22;21.90;87.20
10891;DHT22;5498;50.928;11.598;2022-08-21T08:10:25;21.90;87.00
10891;DHT22;5498;50.928;11.598;2022-08-21T08:13:28;22.20;87.30
10891;DHT22;5498;50.928;11.598;2022-08-21T08:16:30;21.80;86.60
10891;DHT22;5498;50.928;11.598;2022-08-21T08:19:32;21.80;87.10
10891;DHT22;5498;50.928;11.598;2022-08-21T08:22:35;21.70;87.40
10891;DHT22;5498;50.928;11.598;2022-08-21T08:25:38;21.70;88.10
10891;DHT22;5498;50.928;11.598;2022-08-21T08:28:44;21.60;87.80
10891;DHT22;5498;50.928;11.598;2022-08-21T08:31:48;21.60;87.60
10891;DHT22;5498;50.928;11.598;2022-08-21T08:34:51;21.60;87.70
10891;DHT22;5498;50.928;11.598;2022-08-21T08:37:54;21.50;87.30
10891;DHT22;5498;50.928;11.598;2022-08-21T08:41:01;21.40;87.00
10891;DHT22;5498;50.928;11.598;2022-08-21T08:44:07;20.80;86.90
10891;DHT22;5498;50.928;11.598;2022-08-21T08:47:10;21.40;87.30
10891;DHT22;5498;50.928;11.598;2022-08-21T08:50:17;21.40;87.60
10891;DHT22;5498;50.928;11.598;2022-08-21T08:53:25;21.40;87.50
10891;DHT22;5498;50.928;11.598;2022-08-21T08:56:32;21.40;87.50
10891;DHT22;5498;50.928;11.598;2022-08-21T08:59:38;21.50;87.00
10891;DHT22;5498;50.928;11.598;2022-08-21T09:02:43;21.50;85.50
10891;DHT22;5498;50.928;11.598;2022-08-21T09:05:48;21.50;83.50
10891;DHT22;5498;50.928;11.598;2022-08-21T09:09:01;21.50;81.60
10891;DHT22;5498;50.928;11.598;2022-08-21T09:12:14;21.60;81.10
10891;DHT22;5498;50.928;11.598;2022-08-21T09:15:26;21.60;79.70
10891;DHT22;5498;50.928;11.598;2022-08-21T09:18:38;21.60;79.80
10891;DHT22;5498;50.928;11.598;2022-08-21T09:21:53;21.60;80.40
10891;DHT22;5498;50.928;11.598;2022-08-21T09:25:10;21.70;80.50
10891;DHT22;5498;50.928;11.598;2022-08-21T09:28:15;21.70;78.60
10891;DHT22;5498;50.928;11.598;2022-08-21T09:31:23;21.70;77.70
10891;DHT22;5498;50.928;11.598;2022-08-21T09:34:30;21.80;78.30
10891;DHT22;5498;50.928;11.598;2022-08-21T09:37:34;21.70;76.90
10891;DHT22;5498;50.928;11.598;2022-08-21T09:40:58;21.80;77.70
10891;DHT22;5498;50.928;11.598;2022-08-21T09:44:03;22.00;78.80
10891;DHT22;5498;50.928;11.598;2022-08-21T09:47:07;22.30;78.00
10891;DHT22;5498;50.928;11.598;2022-08-21T09:50:16;22.70;76.80
10891;DHT22;5498;50.928;11.598;2022-08-21T09:53:21;23.00;75.30
10891;DHT22;5498;50.928;11.598;2022-08-21T09:56:28;23.80;74.10
10891;DHT22;5498;50.928;11.598;2022-08-21T09:59:48;23.70;72.90
10891;DHT22;5498;50.928;11.598;2022-08-21T10:02:52;24.00;71.70
10891;DHT22;5498;50.928;11.598;2022-08-21T10:05:58;24.20;71.10
10891;DHT22;5498;50.928;11.598;2022-08-21T10:09:08;24.40;70.80
10891;DHT22;5498;50.928;11.598;2022-08-21T10:12:15;24.60;70.50
10891;DHT22;5498;50.928;11.598;2022-08-21T10:15:31;24.80;69.90
10891;DHT22;5498;50.928;11.598;2022-08-21T10:18:59;25.00;69.30
10891;DHT22;5498;50.928;11.598;2022-08-21T10:22:15;25.30;67.90
10891;DHT22;5498;50.928;11.598;2022-08-21T10:25:28;25.50;67.40
10891;DHT22;5498;50.928;11.598;2022-08-21T10:28:40;25.60;66.20
10891;DHT22;5498;50.928;11.598;2022-08-21T10:31:50;25.70;65.60
10891;DHT22;5498;50.928;11.598;2022-08-21T10:35:06;25.70;64.60
10891;DHT22;5498;50.928;11.598;2022-08-21T10:38:33;25.80;63.40
10891;DHT22;5498;50.928;11.598;2022-08-21T10:42:13;25.80;62.50
10891;DHT22;5498;50.928;11.598;2022-08-21T10:45:32;25.80;61.00
10891;DHT22;5498;50.928;11.598;2022-08-21T10:48:45;25.90;62.30
10891;DHT22;5498;50.928;11.598;2022-08-21T10:51:56;25.90;62.60
10891;DHT22;5498;50.928;11.598;2022-08-21T10:55:14;26.40;62.80
10891;DHT22;5498;50.928;11.598;2022-08-21T10:58:22;26.00;63.20
10891;DHT22;5498;50.928;11.598;2022-08-21T11:01:31;26.50;62.90
10891;DHT22;5498;50.928;11.598;2022-08-21T11:04:45;25.90;60.30
10891;DHT22;5498;50.928;11.598;2022-08-21T11:07:55;25.80;61.20
10891;DHT22;5498;50.928;11.598;2022-08-21T11:11:04;25.50;59.70
10891;DHT22;5498;50.928;11.598;2022-08-21T11:14:13;25.30;61.70
10891;DHT22;5498;50.928;11.598;2022-08-21T11:17:27;25.20;62.10
10891;DHT22;5498;50.928;11.598;2022-08-21T11:20:38;25.60;63.30
10891;DHT22;5498;50.928;11.598;2022-08-21T11:23:46;25.20;63.20
10891;DHT22;5498;50.928;11.598;2022-08-21T11:27:01;25.30;62.30
10891;DHT22;5498;50.928;11.598;2022-08-21T11:30:07;25.30;62.00
10891;DHT22;5498;50.928;11.598;2022-08-21T11:33:31;25.40;61.20
10891;DHT22;5498;50.928;11.598;2022-08-21T11:36:44;25.40;60.40
10891;DHT22;5498;50.928;11.598;2022-08-21T11:39:58;25.80;60.60
10891;DHT22;5498;50.928;11.598;2022-08-21T11:43:11;25.50;61.30
10891;DHT22;5498;50.928;11.598;2022-08-21T11:46:23;25.40;60.00
10891;DHT22;5498;50.928;11.598;2022-08-21T11:49:46;25.30;59.80
10891;DHT22;5498;50.928;11.598;2022-08-21T11:52:59;25.10;59.40
10891;DHT22;5498;50.928;11.598;2022-08-21T11:56:09;24.60;59.80
10891;DHT22;5498;50.928;11.598;2022-08-21T11:59:18;24.70;60.70
10891;DHT22;5498;50.928;11.598;2022-08-21T12:02:29;25.00;61.10
10891;DHT22;5498;50.928;11.598;2022-08-21T12:08:58;25.10;60.70
10891;DHT22;5498;50.928;11.598;2022-08-21T12:12:06;25.30;59.80
10891;DHT22;5498;50.928;11.598;2022-08-21T12:15:24;25.30;60.00
10891;DHT22;5498;50.928;11.598;2022-08-21T12:18:30;25.40;60.20
10891;DHT22;5498;50.928;11.598;2022-08-21T12:21:33;25.30;58.10
10891;DHT22;5498;50.928;11.598;2022-08-21T12:24:38;24.90;59.00
10891;DHT22;5498;50.928;11.598;2022-08-21T12:27:46;24.90;58.70
10891;DHT22;5498;50.928;11.598;2022-08-21T12:30:52;24.80;58.60
10891;DHT22;5498;50.928;11.598;2022-08-21T12:33:57;24.80;58.60
10891;DHT22;5498;50.928;11.598;2022-08-21T12:37:03;24.90;58.90
10891;DHT22;5498;50.928;11.598;2022-08-21T12:40:18;24.80;58.80
10891;DHT22;5498;50.928;11.598;2022-08-21T12:43:29;24.70;59.00
10891;DHT22;5498;50.928;11.598;2022-08-21T12:46:36;24.60;58.90
10891;DHT22;5498;50.928;11.598;2022-08-21T12:49:45;24.70;59.40
10891;DHT22;5498;50.928;11.598;2022-08-21T12:52:59;25.10;59.50
10891;DHT22;5498;50.928;11.598;2022-08-21T12:56:09;24.90;58.80
10891;DHT22;5498;50.928;11.598;2022-08-21T12:59:13;24.90;58.70
10891;DHT22;5498;50.928;11.598;2022-08-21T13:02:18;25.00;58.20
10891;DHT22;5498;50.928;11.598;2022-08-21T13:05:28;25.00;58.30
10891;DHT22;5498;50.928;11.598;2022-08-21T13:08:33;25.00;58.60
10891;DHT22;5498;50.928;11.598;2022-08-21T13:11:37;25.00;58.30
10891;DHT22;5498;50.928;11.598;2022-08-21T13:14:44;25.10;58.70
10891;DHT22;5498;50.928;11.598;2022-08-21T13:17:48;25.10;58.30
10891;DHT22;5498;50.928;11.598;2022-08-21T13:20:52;25.20;57.10
10891;DHT22;5498;50.928;11.598;2022-08-21T13:24:18;25.00;56.70
10891;DHT22;5498;50.928;11.598;2022-08-21T13:27:25;25.10;58.30
10891;DHT22;5498;50.928;11.598;2022-08-21T13:30:30;25.10;57.50
10891;DHT22;5498;50.928;11.598;2022-08-21T13:33:32;25.20;57.70
10891;DHT22;5498;50.928;11.598;2022-08-21T13:36:37;25.30;58.50
10891;DHT22;5498;50.928;11.598;2022-08-21T13:39:49;25.30;57.50
10891;DHT22;5498;50.928;11.598;2022-08-21T13:42:52;25.20;55.50
10891;DHT22;5498;50.928;11.598;2022-08-21T13:45:56;25.50;55.80
10891;DHT22;5498;50.928;11.598;2022-08-21T13:48:59;25.60;56.10
10891;DHT22;5498;50.928;11.598;2022-08-21T13:52:04;25.20;56.40
10891;DHT22;5498;50.928;11.598;2022-08-21T13:55:11;25.00;55.90
10891;DHT22;5498;50.928;11.598;2022-08-21T13:58:24;24.70;55.50
10891;DHT22;5498;50.928;11.598;2022-08-21T14:01:31;24.60;56.50
10891;DHT22;5498;50.928;11.598;2022-08-21T14:04:36;24.70;56.90
10891;DHT22;5498;50.928;11.598;2022-08-21T14:07:44;24.80;57.10
10891;DHT22;5498;50.928;11.598;2022-08-21T14:10:49;24.90;57.30
10891;DHT22;5498;50.928;11.598;2022-08-21T14:13:57;25.00;56.00
10891;DHT22;5498;50.928;11.598;2022-08-21T14:17:06;25.00;55.40
10891;DHT22;5498;50.928;11.598;2022-08-21T14:20:26;25.00;55.30
10891;DHT22;5498;50.928;11.598;2022-08-21T14:23:29;25.10;55.40
10891;DHT22;5498;50.928;11.598;2022-08-21T14:26:34;25.10;55.20
10891;DHT22;5498;50.928;11.598;2022-08-21T14:29:39;25.20;55.20
10891;DHT22;5498;50.928;11.598;2022-08-21T14:32:48;25.20;55.40
10891;DHT22;5498;50.928;11.598;2022-08-21T14:35:50;25.30;55.00
10891;DHT22;5498;50.928;11.598;2022-08-21T14:38:51;25.30;55.20
10891;DHT22;5498;50.928;11.598;2022-08-21T14:41:55;25.40;54.80
10891;DHT22;5498;50.928;11.598;2022-08-21T14:45:05;25.70;55.30
10891;DHT22;5498;50.928;11.598;2022-08-21T14:48:13;25.50;55.30
10891;DHT22;5498;50.928;11.598;2022-08-21T14:51:15;25.50;55.60
10891;DHT22;5498;50.928;11.598;2022-08-21T14:54:17;25.50;54.30
10891;DHT22;5498;50.928;11.598;2022-08-21T14:57:19;25.90;54.40
10891;DHT22;5498;50.928;11.598;2022-08-21T15:00:23;25.40;54.80
10891;DHT22;5498;50.928;11.598;2022-08-21T15:03:27;25.50;55.20
10891;DHT22;5498;50.928;11.598;2022-08-21T15:06:29;25.50;55.20
10891;DHT22;5498;50.928;11.598;2022-08-21T15:09:31;25.50;54.70
10891;DHT22;5498;50.928;11.598;2022-08-21T15:12:35;25.90;54.70
10891;DHT22;5498;50.928;11.598;2022-08-21T15:15:40;25.60;54.40
10891;DHT22;5498;50.928;11.598;2022-08-21T15:18:44;25.60;54.40
10891;DHT22;5498;50.928;11.598;2022-08-21T15:21:46;25.60;54.00
10891;DHT22;5498;50.928;11.598;2022-08-21T15:24:48;25.60;54.40
10891;DHT22;5498;50.928;11.598;2022-08-21T15:27:51;25.60;55.00
10891;DHT22;5498;50.928;11.598;2022-08-21T15:30:53;25.60;55.30
10891;DHT22;5498;50.928;11.598;2022-08-21T15:33:56;25.60;55.30
10891;DHT22;5498;50.928;11.598;2022-08-21T15:36:58;25.60;55.00
10891;DHT22;5498;50.928;11.598;2022-08-21T15:40:00;25.60;54.30
10891;DHT22;5498;50.928;11.598;2022-08-21T15:43:04;25.70;53.60
10891;DHT22;5498;50.928;11.598;2022-08-21T15:46:08;25.60;54.20
10891;DHT22;5498;50.928;11.598;2022-08-21T15:49:13;25.60;53.90
10891;DHT22;5498;50.928;11.598;2022-08-21T15:52:16;25.70;54.10
10891;DHT22;5498;50.928;11.598;2022-08-21T15:55:20;25.60;54.40
10891;DHT22;5498;50.928;11.598;2022-08-21T15:58:22;25.60;54.00
10891;DHT22;5498;50.928;11.598;2022-08-21T16:01:24;25.60;53.70
10891;DHT22;5498;50.928;11.598;2022-08-21T16:04:28;25.60;54.00
10891;DHT22;5498;50.928;11.598;2022-08-21T16:07:29;25.50;54.00
10891;DHT22;5498;50.928;11.598;2022-08-21T16:10:32;25.60;53.20
10891;DHT22;5498;50.928;11.598;2022-08-21T16:13:36;25.50;53.60
10891;DHT22;5498;50.928;11.598;2022-08-21T16:16:43;25.50;53.00
10891;DHT22;5498;50.928;11.598;2022-08-21T16:19:46;25.50;52.40
10891;DHT22;5498;50.928;11.598;2022-08-21T16:22:48;25.90;52.10
10891;DHT22;5498;50.928;11.598;2022-08-21T16:25:50;25.40;52.40
10891;DHT22;5498;50.928;11.598;2022-08-21T16:28:54;25.30;53.00
10891;DHT22;5498;50.928;11.598;2022-08-21T16:31:58;25.30;54.00
10891;DHT22;5498;50.928;11.598;2022-08-21T16:35:02;25.30;53.70
10891;DHT22;5498;50.928;11.598;2022-08-21T16:38:05;25.00;53.40
10891;DHT22;5498;50.928;11.598;2022-08-21T16:41:09;25.00;53.90
10891;DHT22;5498;50.928;11.598;2022-08-21T16:44:12;25.10;54.50
10891;DHT22;5498;50.928;11.598;2022-08-21T16:47:14;25.50;53.90
10891;DHT22;5498;50.928;11.598;2022-08-21T16:50:20;25.20;53.90
10891;DHT22;5498;50.928;11.598;2022-08-21T16:53:25;25.20;54.30
10891;DHT22;5498;50.928;11.598;2022-08-21T16:56:27;25.20;54.20
10891;DHT22;5498;50.928;11.598;2022-08-21T16:59:29;25.20;53.10
10891;DHT22;5498;50.928;11.598;2022-08-21T17:02:34;25.20;52.80
10891;DHT22;5498;50.928;11.598;2022-08-21T17:05:39;25.20;53.50
10891;DHT22;5498;50.928;11.598;2022-08-21T17:08:41;25.20;53.10
10891;DHT22;5498;50.928;11.598;2022-08-21T17:11:45;25.20;53.30
10891;DHT22;5498;50.928;11.598;2022-08-21T17:14:49;25.20;53.70
10891;DHT22;5498;50.928;11.598;2022-08-21T17:17:51;25.10;53.80
10891;DHT22;5498;50.928;11.598;2022-08-21T17:20:57;24.90;54.40
10891;DHT22;5498;50.928;11.598;2022-08-21T17:23:59;24.90;55.20
10891;DHT22;5498;50.928;11.598;2022-08-21T17:27:02;24.70;55.40
10891;DHT22;5498;50.928;11.598;2022-08-21T17:30:06;24.70;55.90
10891;DHT22;5498;50.928;11.598;2022-08-21T17:33:08;24.60;56.20
10891;DHT22;5498;50.928;11.598;2022-08-21T17:36:12;24.60;56.20
10891;DHT22;5498;50.928;11.598;2022-08-21T17:39:14;24.70;56.40
10891;DHT22;5498;50.928;11.598;2022-08-21T17:42:17;24.60;56.30
10891;DHT22;5498;50.928;11.598;2022-08-21T17:45:22;24.60;57.00
10891;DHT22;5498;50.928;11.598;2022-08-21T17:48:24;23.70;56.90
10891;DHT22;5498;50.928;11.598;2022-08-21T17:51:27;24.10;57.10
10891;DHT22;5498;50.928;11.598;2022-08-21T17:54:29;24.00;57.70
10891;DHT22;5498;50.928;11.598;2022-08-21T17:57:33;23.90;58.20
10891;DHT22;5498;50.928;11.598;2022-08-21T18:00:36;23.90;58.60
10891;DHT22;5498;50.928;11.598;2022-08-21T18:03:38;23.90;58.70
10891;DHT22;5498;50.928;11.598;2022-08-21T18:06:42;23.90;58.80
10891;DHT22;5498;50.928;11.598;2022-08-21T18:09:45;23.80;59.20
10891;DHT22;5498;50.928;11.598;2022-08-21T18:12:47;23.70;59.10
10891;DHT22;5498;50.928;11.598;2022-08-21T18:15:50;23.70;59.10
10891;DHT22;5498;50.928;11.598;2022-08-21T18:18:55;23.80;59.50
10891;DHT22;5498;50.928;11.598;2022-08-21T18:22:00;23.80;60.00
10891;DHT22;5498;50.928;11.598;2022-08-21T18:25:07;23.80;59.70
10891;DHT22;5498;50.928;11.598;2022-08-21T18:28:09;23.70;60.30
10891;DHT22;5498;50.928;11.598;2022-08-21T18:31:12;23.70;60.80
10891;DHT22;5498;50.928;11.598;2022-08-21T18:34:21;23.60;61.70
10891;DHT22;5498;50.928;11.598;2022-08-21T18:37:26;23.50;62.20
10891;DHT22;5498;50.928;11.598;2022-08-21T18:40:31;23.50;62.40
10891;DHT22;5498;50.928;11.598;2022-08-21T18:43:34;23.40;62.80
10891;DHT22;5498;50.928;11.598;2022-08-21T18:46:36;23.30;62.70
10891;DHT22;5498;50.928;11.598;2022-08-21T18:49:38;23.20;62.20
10891;DHT22;5498;50.928;11.598;2022-08-21T18:52:41;23.20;63.40
10891;DHT22;5498;50.928;11.598;2022-08-21T18:55:44;23.00;64.10
10891;DHT22;5498;50.928;11.598;2022-08-21T18:58:47;22.90;63.60
10891;DHT22;5498;50.928;11.598;2022-08-21T19:01:50;22.90;63.80
10891;DHT22;5498;50.928;11.598;2022-08-21T19:04:52;22.80;63.30
10891;DHT22;5498;50.928;11.598;2022-08-21T19:07:56;22.80;64.60
10891;DHT22;5498;50.928;11.598;2022-08-21T19:10:58;22.70;64.80
10891;DHT22;5498;50.928;11.598;2022-08-21T19:14:03;22.60;64.80
10891;DHT22;5498;50.928;11.598;2022-08-21T19:17:05;22.60;66.10
10891;DHT22;5498;50.928;11.598;2022-08-21T19:20:13;22.50;66.20
10891;DHT22;5498;50.928;11.598;2022-08-21T19:23:18;22.40;66.70
10891;DHT22;5498;50.928;11.598;2022-08-21T19:26:22;22.40;67.00
10891;DHT22;5498;50.928;11.598;2022-08-21T19:29:26;22.30;67.30
10891;DHT22;5498;50.928;11.598;2022-08-21T19:32:29;22.30;67.30